Montmartre, Canada
Current Conditions -  °F | °C
As of 1:00 PM on Thursday 23 Oct 2014 (Local Time) from CYQR Reporting Station
Broken Clouds Broken Clouds  
Wind Chill: 55°   Ceiling: 11000
Heat Index: 55°   Visibility: 15mi
Dew Point: 45°   Wind: 8mph
Humidity: 67%   Direction: 190°S
Pressure: 29.69"   Gusts: NA
Location:  50.22°N, 103.45°W
Report Text: CYQR 231900Z 19007KT 15SM BKN110 BKN200 13/07 A2969 RMK AC6CI1 SLP071 DENSITY ALT 2300FT
Loading
Personal Weather Stations






























Interactive Weather Map
Tropical Storm Tracking
New forecast layout! Learn more

10-Day Weather Forecast

Advertisements
Track Severe Weather on mobile